sensor_id;sensor_type;location;lat;lon;timestamp;temperature;humidity
6865;DHT22;3471;49.678;8.388;2023-04-29T00:01:07;14.40;99.90
6865;DHT22;3471;49.678;8.388;2023-04-29T00:03:32;14.40;99.90
6865;DHT22;3471;49.678;8.388;2023-04-29T00:05:58;14.40;99.90
6865;DHT22;3471;49.678;8.388;2023-04-29T00:08:24;14.40;99.90
6865;DHT22;3471;49.678;8.388;2023-04-29T00:10:50;14.40;99.90
6865;DHT22;3471;49.678;8.388;2023-04-29T00:13:16;14.30;99.90
6865;DHT22;3471;49.678;8.388;2023-04-29T00:15:42;14.30;99.90
6865;DHT22;3471;49.678;8.388;2023-04-29T00:18:07;14.30;99.90
6865;DHT22;3471;49.678;8.388;2023-04-29T00:20:33;14.30;99.90
6865;DHT22;3471;49.678;8.388;2023-04-29T00:22:59;14.30;99.90
6865;DHT22;3471;49.678;8.388;2023-04-29T00:25:25;14.30;99.90
6865;DHT22;3471;49.678;8.388;2023-04-29T00:27:50;14.30;99.90
6865;DHT22;3471;49.678;8.388;2023-04-29T00:30:16;14.20;99.90
6865;DHT22;3471;49.678;8.388;2023-04-29T00:32:41;14.20;99.90
6865;DHT22;3471;49.678;8.388;2023-04-29T00:35:09;14.20;99.90
6865;DHT22;3471;49.678;8.388;2023-04-29T00:37:34;14.20;99.90
6865;DHT22;3471;49.678;8.388;2023-04-29T00:40:00;14.10;99.90
6865;DHT22;3471;49.678;8.388;2023-04-29T00:42:27;14.10;99.90
6865;DHT22;3471;49.678;8.388;2023-04-29T00:44:53;14.10;99.90
6865;DHT22;3471;49.678;8.388;2023-04-29T00:47:19;14.10;99.90
6865;DHT22;3471;49.678;8.388;2023-04-29T00:49:44;14.10;99.90
6865;DHT22;3471;49.678;8.388;2023-04-29T00:52:10;14.10;99.90
6865;DHT22;3471;49.678;8.388;2023-04-29T00:54:38;14.20;99.90
6865;DHT22;3471;49.678;8.388;2023-04-29T00:57:04;14.20;99.90
6865;DHT22;3471;49.678;8.388;2023-04-29T00:59:31;14.20;99.90
6865;DHT22;3471;49.678;8.388;2023-04-29T01:02:01;14.30;99.90
6865;DHT22;3471;49.678;8.388;2023-04-29T01:04:27;14.30;99.90
6865;DHT22;3471;49.678;8.388;2023-04-29T01:06:57;14.30;99.90
6865;DHT22;3471;49.678;8.388;2023-04-29T01:09:46;14.30;99.90
6865;DHT22;3471;49.678;8.388;2023-04-29T01:15:03;14.20;99.90
6865;DHT22;3471;49.678;8.388;2023-04-29T01:17:36;14.20;99.90
6865;DHT22;3471;49.678;8.388;2023-04-29T01:20:04;14.30;99.90
6865;DHT22;3471;49.678;8.388;2023-04-29T01:22:30;14.30;99.90
6865;DHT22;3471;49.678;8.388;2023-04-29T01:24:56;14.20;99.90
6865;DHT22;3471;49.678;8.388;2023-04-29T01:27:45;14.30;99.90
6865;DHT22;3471;49.678;8.388;2023-04-29T01:30:27;14.30;99.90
6865;DHT22;3471;49.678;8.388;2023-04-29T01:35:43;14.20;99.90
6865;DHT22;3471;49.678;8.388;2023-04-29T01:38:31;14.20;99.90
6865;DHT22;3471;49.678;8.388;2023-04-29T01:43:55;14.00;99.90
6865;DHT22;3471;49.678;8.388;2023-04-29T01:46:23;13.90;99.90
6865;DHT22;3471;49.678;8.388;2023-04-29T01:48:52;13.90;99.90
6865;DHT22;3471;49.678;8.388;2023-04-29T01:51:18;13.80;99.90
6865;DHT22;3471;49.678;8.388;2023-04-29T01:53:44;13.70;99.90
6865;DHT22;3471;49.678;8.388;2023-04-29T01:56:09;13.60;99.90
6865;DHT22;3471;49.678;8.388;2023-04-29T01:58:35;13.60;99.90
6865;DHT22;3471;49.678;8.388;2023-04-29T02:01:01;13.50;99.90
6865;DHT22;3471;49.678;8.388;2023-04-29T02:03:26;13.40;99.90
6865;DHT22;3471;49.678;8.388;2023-04-29T02:05:52;13.30;99.90
6865;DHT22;3471;49.678;8.388;2023-04-29T02:08:17;13.30;99.90
6865;DHT22;3471;49.678;8.388;2023-04-29T02:10:56;13.20;99.90
6865;DHT22;3471;49.678;8.388;2023-04-29T02:13:22;13.20;99.90
6865;DHT22;3471;49.678;8.388;2023-04-29T02:15:48;13.10;99.90
6865;DHT22;3471;49.678;8.388;2023-04-29T02:18:14;13.10;99.90
6865;DHT22;3471;49.678;8.388;2023-04-29T02:20:39;13.10;99.90
6865;DHT22;3471;49.678;8.388;2023-04-29T02:23:05;13.10;99.90
6865;DHT22;3471;49.678;8.388;2023-04-29T02:25:31;13.00;99.90
6865;DHT22;3471;49.678;8.388;2023-04-29T02:27:56;13.00;99.90
6865;DHT22;3471;49.678;8.388;2023-04-29T02:30:22;13.00;99.90
6865;DHT22;3471;49.678;8.388;2023-04-29T02:32:47;13.00;99.90
6865;DHT22;3471;49.678;8.388;2023-04-29T02:35:13;13.00;99.90
6865;DHT22;3471;49.678;8.388;2023-04-29T02:37:38;13.00;99.90
6865;DHT22;3471;49.678;8.388;2023-04-29T02:40:04;13.00;99.90
6865;DHT22;3471;49.678;8.388;2023-04-29T02:42:30;13.00;99.90
6865;DHT22;3471;49.678;8.388;2023-04-29T02:44:56;13.00;99.90
6865;DHT22;3471;49.678;8.388;2023-04-29T02:47:22;13.00;99.90
6865;DHT22;3471;49.678;8.388;2023-04-29T02:49:48;12.90;99.90
6865;DHT22;3471;49.678;8.388;2023-04-29T02:52:14;12.90;99.90
6865;DHT22;3471;49.678;8.388;2023-04-29T02:54:41;12.90;99.90
6865;DHT22;3471;49.678;8.388;2023-04-29T02:57:07;12.80;99.90
6865;DHT22;3471;49.678;8.388;2023-04-29T02:59:33;12.80;99.90
6865;DHT22;3471;49.678;8.388;2023-04-29T03:01:59;12.80;99.90
6865;DHT22;3471;49.678;8.388;2023-04-29T03:04:26;12.70;99.90
6865;DHT22;3471;49.678;8.388;2023-04-29T03:06:54;12.70;99.90
6865;DHT22;3471;49.678;8.388;2023-04-29T03:09:21;12.60;99.90
6865;DHT22;3471;49.678;8.388;2023-04-29T03:11:47;12.60;99.90
6865;DHT22;3471;49.678;8.388;2023-04-29T03:14:12;12.60;99.90
6865;DHT22;3471;49.678;8.388;2023-04-29T03:16:38;12.50;99.90
6865;DHT22;3471;49.678;8.388;2023-04-29T03:19:03;12.50;99.90
6865;DHT22;3471;49.678;8.388;2023-04-29T03:21:29;12.50;99.90
6865;DHT22;3471;49.678;8.388;2023-04-29T03:23:55;12.40;99.90
6865;DHT22;3471;49.678;8.388;2023-04-29T03:26:20;12.40;99.90
6865;DHT22;3471;49.678;8.388;2023-04-29T03:28:48;12.40;99.90
6865;DHT22;3471;49.678;8.388;2023-04-29T03:31:14;12.40;99.90
6865;DHT22;3471;49.678;8.388;2023-04-29T03:33:40;12.40;99.90
6865;DHT22;3471;49.678;8.388;2023-04-29T03:36:06;12.40;99.90
6865;DHT22;3471;49.678;8.388;2023-04-29T03:38:33;12.40;99.90
6865;DHT22;3471;49.678;8.388;2023-04-29T03:40:58;12.40;99.90
6865;DHT22;3471;49.678;8.388;2023-04-29T03:43:24;12.40;99.90
6865;DHT22;3471;49.678;8.388;2023-04-29T03:45:50;12.40;99.90
6865;DHT22;3471;49.678;8.388;2023-04-29T03:48:15;12.50;99.90
6865;DHT22;3471;49.678;8.388;2023-04-29T03:50:41;12.50;99.90
6865;DHT22;3471;49.678;8.388;2023-04-29T03:53:07;12.60;99.90
6865;DHT22;3471;49.678;8.388;2023-04-29T03:55:33;12.60;99.90
6865;DHT22;3471;49.678;8.388;2023-04-29T03:57:58;12.70;99.90
6865;DHT22;3471;49.678;8.388;2023-04-29T04:00:24;12.70;99.90
6865;DHT22;3471;49.678;8.388;2023-04-29T04:02:51;12.80;99.90
6865;DHT22;3471;49.678;8.388;2023-04-29T04:05:17;12.80;99.90
6865;DHT22;3471;49.678;8.388;2023-04-29T04:07:45;12.80;99.90
6865;DHT22;3471;49.678;8.388;2023-04-29T04:10:11;12.80;99.90
6865;DHT22;3471;49.678;8.388;2023-04-29T04:12:37;12.80;99.90
6865;DHT22;3471;49.678;8.388;2023-04-29T04:15:03;12.80;99.90
6865;DHT22;3471;49.678;8.388;2023-04-29T04:17:28;12.80;99.90
6865;DHT22;3471;49.678;8.388;2023-04-29T04:19:54;12.80;99.90
6865;DHT22;3471;49.678;8.388;2023-04-29T04:22:20;12.80;99.90
6865;DHT22;3471;49.678;8.388;2023-04-29T04:24:46;12.80;99.90
6865;DHT22;3471;49.678;8.388;2023-04-29T04:27:11;12.80;99.90
6865;DHT22;3471;49.678;8.388;2023-04-29T04:29:38;12.90;99.90
6865;DHT22;3471;49.678;8.388;2023-04-29T04:32:04;12.90;99.90
6865;DHT22;3471;49.678;8.388;2023-04-29T04:34:29;12.90;99.90
6865;DHT22;3471;49.678;8.388;2023-04-29T04:36:55;13.00;99.90
6865;DHT22;3471;49.678;8.388;2023-04-29T04:39:20;13.10;99.90
6865;DHT22;3471;49.678;8.388;2023-04-29T04:41:46;13.20;99.90
6865;DHT22;3471;49.678;8.388;2023-04-29T04:44:12;13.20;99.90
6865;DHT22;3471;49.678;8.388;2023-04-29T04:46:38;13.30;99.90
6865;DHT22;3471;49.678;8.388;2023-04-29T04:49:04;13.40;99.90
6865;DHT22;3471;49.678;8.388;2023-04-29T04:51:30;13.50;99.90
6865;DHT22;3471;49.678;8.388;2023-04-29T04:53:55;13.50;99.90
6865;DHT22;3471;49.678;8.388;2023-04-29T04:56:21;13.60;99.90
6865;DHT22;3471;49.678;8.388;2023-04-29T04:58:46;13.60;99.90
6865;DHT22;3471;49.678;8.388;2023-04-29T05:01:12;13.60;99.90
6865;DHT22;3471;49.678;8.388;2023-04-29T05:03:38;13.70;99.90
6865;DHT22;3471;49.678;8.388;2023-04-29T05:06:03;13.70;99.90
6865;DHT22;3471;49.678;8.388;2023-04-29T05:08:29;13.80;99.90
6865;DHT22;3471;49.678;8.388;2023-04-29T05:10:55;13.80;99.90
6865;DHT22;3471;49.678;8.388;2023-04-29T05:13:21;13.80;99.90
6865;DHT22;3471;49.678;8.388;2023-04-29T05:15:46;13.90;99.90
6865;DHT22;3471;49.678;8.388;2023-04-29T05:18:12;13.90;99.90
6865;DHT22;3471;49.678;8.388;2023-04-29T05:20:38;13.90;99.90
6865;DHT22;3471;49.678;8.388;2023-04-29T05:23:03;14.00;99.90
6865;DHT22;3471;49.678;8.388;2023-04-29T05:25:29;13.90;99.90
6865;DHT22;3471;49.678;8.388;2023-04-29T05:27:54;14.00;99.90
6865;DHT22;3471;49.678;8.388;2023-04-29T05:30:20;14.00;99.90
6865;DHT22;3471;49.678;8.388;2023-04-29T05:32:46;14.00;99.90
6865;DHT22;3471;49.678;8.388;2023-04-29T05:35:13;13.90;99.90
6865;DHT22;3471;49.678;8.388;2023-04-29T05:37:38;13.90;99.90
6865;DHT22;3471;49.678;8.388;2023-04-29T05:40:05;13.90;99.90
6865;DHT22;3471;49.678;8.388;2023-04-29T05:42:30;13.90;99.90
6865;DHT22;3471;49.678;8.388;2023-04-29T05:44:56;13.90;99.90
6865;DHT22;3471;49.678;8.388;2023-04-29T05:47:21;14.00;99.90
6865;DHT22;3471;49.678;8.388;2023-04-29T05:49:47;14.00;99.90
6865;DHT22;3471;49.678;8.388;2023-04-29T05:52:13;14.00;99.90
6865;DHT22;3471;49.678;8.388;2023-04-29T05:54:39;14.10;99.90
6865;DHT22;3471;49.678;8.388;2023-04-29T05:57:05;14.10;99.90
6865;DHT22;3471;49.678;8.388;2023-04-29T05:59:32;14.10;99.90
6865;DHT22;3471;49.678;8.388;2023-04-29T06:01:59;14.10;99.90
6865;DHT22;3471;49.678;8.388;2023-04-29T06:04:25;14.20;99.90
6865;DHT22;3471;49.678;8.388;2023-04-29T06:06:54;14.20;99.90
6865;DHT22;3471;49.678;8.388;2023-04-29T06:09:21;14.20;99.90
6865;DHT22;3471;49.678;8.388;2023-04-29T06:11:50;14.20;99.90
6865;DHT22;3471;49.678;8.388;2023-04-29T06:14:15;14.20;99.90
6865;DHT22;3471;49.678;8.388;2023-04-29T06:16:41;14.30;99.90
6865;DHT22;3471;49.678;8.388;2023-04-29T06:19:07;14.30;99.90
6865;DHT22;3471;49.678;8.388;2023-04-29T06:21:32;14.40;99.90
6865;DHT22;3471;49.678;8.388;2023-04-29T06:23:58;14.40;99.90
6865;DHT22;3471;49.678;8.388;2023-04-29T06:26:24;14.50;99.90
6865;DHT22;3471;49.678;8.388;2023-04-29T06:28:49;14.50;99.90
6865;DHT22;3471;49.678;8.388;2023-04-29T06:31:15;14.50;99.90
6865;DHT22;3471;49.678;8.388;2023-04-29T06:33:41;14.50;99.90
6865;DHT22;3471;49.678;8.388;2023-04-29T06:36:07;14.50;99.90
6865;DHT22;3471;49.678;8.388;2023-04-29T06:38:33;14.50;99.90
6865;DHT22;3471;49.678;8.388;2023-04-29T06:40:58;14.50;99.90
6865;DHT22;3471;49.678;8.388;2023-04-29T06:43:27;14.50;99.90
6865;DHT22;3471;49.678;8.388;2023-04-29T06:45:53;14.50;99.90
6865;DHT22;3471;49.678;8.388;2023-04-29T06:48:18;14.50;99.90
6865;DHT22;3471;49.678;8.388;2023-04-29T06:50:51;14.50;99.90
6865;DHT22;3471;49.678;8.388;2023-04-29T06:53:17;14.60;99.90
6865;DHT22;3471;49.678;8.388;2023-04-29T06:55:42;14.60;99.90
6865;DHT22;3471;49.678;8.388;2023-04-29T06:58:09;14.70;99.90
6865;DHT22;3471;49.678;8.388;2023-04-29T07:00:34;14.80;99.90
6865;DHT22;3471;49.678;8.388;2023-04-29T07:03:00;14.80;99.90
6865;DHT22;3471;49.678;8.388;2023-04-29T07:05:25;14.80;99.90
6865;DHT22;3471;49.678;8.388;2023-04-29T07:07:51;14.90;99.90
6865;DHT22;3471;49.678;8.388;2023-04-29T07:10:17;14.90;99.90
6865;DHT22;3471;49.678;8.388;2023-04-29T07:12:42;15.00;99.90
6865;DHT22;3471;49.678;8.388;2023-04-29T07:15:08;15.10;99.90
6865;DHT22;3471;49.678;8.388;2023-04-29T07:17:34;15.10;99.90
6865;DHT22;3471;49.678;8.388;2023-04-29T07:19:59;15.10;99.90
6865;DHT22;3471;49.678;8.388;2023-04-29T07:22:25;15.10;99.90
6865;DHT22;3471;49.678;8.388;2023-04-29T07:24:53;15.10;99.90
6865;DHT22;3471;49.678;8.388;2023-04-29T07:27:20;15.10;99.90
6865;DHT22;3471;49.678;8.388;2023-04-29T07:29:45;15.10;99.90
6865;DHT22;3471;49.678;8.388;2023-04-29T07:32:11;15.10;99.90
6865;DHT22;3471;49.678;8.388;2023-04-29T07:34:37;15.20;99.90
6865;DHT22;3471;49.678;8.388;2023-04-29T07:37:02;15.20;99.90
6865;DHT22;3471;49.678;8.388;2023-04-29T07:39:28;15.20;99.90
6865;DHT22;3471;49.678;8.388;2023-04-29T07:41:54;15.20;99.90
6865;DHT22;3471;49.678;8.388;2023-04-29T07:44:20;15.20;99.90
6865;DHT22;3471;49.678;8.388;2023-04-29T07:46:46;15.20;99.90
6865;DHT22;3471;49.678;8.388;2023-04-29T07:49:12;15.20;99.90
6865;DHT22;3471;49.678;8.388;2023-04-29T07:51:40;15.30;99.90
6865;DHT22;3471;49.678;8.388;2023-04-29T07:54:07;15.40;99.90
6865;DHT22;3471;49.678;8.388;2023-04-29T07:56:32;15.50;99.90
6865;DHT22;3471;49.678;8.388;2023-04-29T07:58:59;15.60;99.90
6865;DHT22;3471;49.678;8.388;2023-04-29T08:01:25;15.60;99.90
6865;DHT22;3471;49.678;8.388;2023-04-29T08:03:51;15.70;99.90
6865;DHT22;3471;49.678;8.388;2023-04-29T08:06:16;15.80;99.90
6865;DHT22;3471;49.678;8.388;2023-04-29T08:08:45;15.90;99.90
6865;DHT22;3471;49.678;8.388;2023-04-29T08:11:17;16.00;99.90
6865;DHT22;3471;49.678;8.388;2023-04-29T08:13:43;16.00;99.90
6865;DHT22;3471;49.678;8.388;2023-04-29T08:16:10;16.00;99.90
6865;DHT22;3471;49.678;8.388;2023-04-29T08:18:35;16.00;99.90
6865;DHT22;3471;49.678;8.388;2023-04-29T08:21:01;16.00;99.90
6865;DHT22;3471;49.678;8.388;2023-04-29T08:23:27;16.00;99.90
6865;DHT22;3471;49.678;8.388;2023-04-29T08:25:52;15.90;99.90
6865;DHT22;3471;49.678;8.388;2023-04-29T08:28:20;15.90;99.90
6865;DHT22;3471;49.678;8.388;2023-04-29T08:30:46;15.80;99.90
6865;DHT22;3471;49.678;8.388;2023-04-29T08:33:12;15.70;99.90
6865;DHT22;3471;49.678;8.388;2023-04-29T08:35:39;15.70;99.90
6865;DHT22;3471;49.678;8.388;2023-04-29T08:38:05;15.60;99.90
6865;DHT22;3471;49.678;8.388;2023-04-29T08:40:34;15.70;99.90
6865;DHT22;3471;49.678;8.388;2023-04-29T08:43:00;15.60;99.90
6865;DHT22;3471;49.678;8.388;2023-04-29T08:45:26;15.60;99.90
6865;DHT22;3471;49.678;8.388;2023-04-29T08:47:53;15.60;99.90
6865;DHT22;3471;49.678;8.388;2023-04-29T08:50:20;15.60;99.90
6865;DHT22;3471;49.678;8.388;2023-04-29T08:52:46;15.60;99.90
6865;DHT22;3471;49.678;8.388;2023-04-29T08:55:13;15.60;99.90
6865;DHT22;3471;49.678;8.388;2023-04-29T08:57:40;15.70;99.90
6865;DHT22;3471;49.678;8.388;2023-04-29T09:00:08;15.70;99.90
6865;DHT22;3471;49.678;8.388;2023-04-29T09:02:40;15.70;99.90
6865;DHT22;3471;49.678;8.388;2023-04-29T09:05:10;15.80;99.90
6865;DHT22;3471;49.678;8.388;2023-04-29T09:07:40;15.80;99.90
6865;DHT22;3471;49.678;8.388;2023-04-29T09:10:07;15.80;99.90
6865;DHT22;3471;49.678;8.388;2023-04-29T09:12:33;15.90;99.90
6865;DHT22;3471;49.678;8.388;2023-04-29T09:14:58;15.90;99.90
6865;DHT22;3471;49.678;8.388;2023-04-29T09:17:45;15.90;99.90
6865;DHT22;3471;49.678;8.388;2023-04-29T09:22:57;15.90;99.90
6865;DHT22;3471;49.678;8.388;2023-04-29T09:25:22;15.90;99.90
6865;DHT22;3471;49.678;8.388;2023-04-29T09:27:48;16.00;99.90
6865;DHT22;3471;49.678;8.388;2023-04-29T09:30:14;16.00;99.90
6865;DHT22;3471;49.678;8.388;2023-04-29T09:32:41;16.00;99.90
6865;DHT22;3471;49.678;8.388;2023-04-29T09:35:24;16.00;99.90
6865;DHT22;3471;49.678;8.388;2023-04-29T09:37:51;16.10;99.90
6865;DHT22;3471;49.678;8.388;2023-04-29T09:40:32;16.10;99.90
6865;DHT22;3471;49.678;8.388;2023-04-29T09:42:59;16.10;99.90
6865;DHT22;3471;49.678;8.388;2023-04-29T09:45:39;16.10;99.90
6865;DHT22;3471;49.678;8.388;2023-04-29T09:48:07;16.10;99.90
6865;DHT22;3471;49.678;8.388;2023-04-29T09:50:33;16.10;99.90
6865;DHT22;3471;49.678;8.388;2023-04-29T09:53:02;16.10;99.90
6865;DHT22;3471;49.678;8.388;2023-04-29T09:55:28;16.10;99.90
6865;DHT22;3471;49.678;8.388;2023-04-29T09:57:56;16.20;99.90
6865;DHT22;3471;49.678;8.388;2023-04-29T10:00:23;16.20;99.90
6865;DHT22;3471;49.678;8.388;2023-04-29T10:02:50;16.20;99.90
6865;DHT22;3471;49.678;8.388;2023-04-29T10:05:18;16.20;99.90
6865;DHT22;3471;49.678;8.388;2023-04-29T10:07:45;16.30;99.90
6865;DHT22;3471;49.678;8.388;2023-04-29T10:10:12;16.30;99.90
6865;DHT22;3471;49.678;8.388;2023-04-29T10:12:40;16.30;99.90
6865;DHT22;3471;49.678;8.388;2023-04-29T10:15:30;16.30;99.90
6865;DHT22;3471;49.678;8.388;2023-04-29T10:20:33;16.50;99.90
6865;DHT22;3471;49.678;8.388;2023-04-29T10:23:00;16.50;99.90
6865;DHT22;3471;49.678;8.388;2023-04-29T10:25:28;16.40;99.90
6865;DHT22;3471;49.678;8.388;2023-04-29T10:27:54;16.40;99.90
6865;DHT22;3471;49.678;8.388;2023-04-29T10:30:21;16.40;99.90
6865;DHT22;3471;49.678;8.388;2023-04-29T10:32:48;16.30;99.90
6865;DHT22;3471;49.678;8.388;2023-04-29T10:35:15;16.30;99.90
6865;DHT22;3471;49.678;8.388;2023-04-29T10:37:42;16.30;99.90
6865;DHT22;3471;49.678;8.388;2023-04-29T10:40:14;16.30;99.90
6865;DHT22;3471;49.678;8.388;2023-04-29T10:42:48;16.20;99.90
6865;DHT22;3471;49.678;8.388;2023-04-29T10:50:33;16.30;99.90
6865;DHT22;3471;49.678;8.388;2023-04-29T10:53:03;16.30;99.90
6865;DHT22;3471;49.678;8.388;2023-04-29T10:55:30;16.30;99.90
6865;DHT22;3471;49.678;8.388;2023-04-29T10:57:56;16.30;99.90
6865;DHT22;3471;49.678;8.388;2023-04-29T11:00:26;16.30;99.90
6865;DHT22;3471;49.678;8.388;2023-04-29T11:02:59;16.40;99.90
6865;DHT22;3471;49.678;8.388;2023-04-29T11:05:35;16.40;99.90
6865;DHT22;3471;49.678;8.388;2023-04-29T11:08:14;16.40;99.90
6865;DHT22;3471;49.678;8.388;2023-04-29T11:10:51;16.50;99.90
6865;DHT22;3471;49.678;8.388;2023-04-29T11:15:46;16.50;99.90
6865;DHT22;3471;49.678;8.388;2023-04-29T11:18:11;16.50;99.90
6865;DHT22;3471;49.678;8.388;2023-04-29T11:23:36;16.60;99.90
6865;DHT22;3471;49.678;8.388;2023-04-29T11:26:02;16.60;99.90
6865;DHT22;3471;49.678;8.388;2023-04-29T11:28:30;16.60;99.90
6865;DHT22;3471;49.678;8.388;2023-04-29T11:30:56;16.70;99.90
6865;DHT22;3471;49.678;8.388;2023-04-29T11:33:23;16.80;99.90
6865;DHT22;3471;49.678;8.388;2023-04-29T11:35:48;16.80;99.90
6865;DHT22;3471;49.678;8.388;2023-04-29T11:38:14;16.90;99.90
6865;DHT22;3471;49.678;8.388;2023-04-29T11:40:49;17.00;99.90
6865;DHT22;3471;49.678;8.388;2023-04-29T11:43:19;17.10;99.90
6865;DHT22;3471;49.678;8.388;2023-04-29T11:45:45;17.20;99.90
6865;DHT22;3471;49.678;8.388;2023-04-29T11:48:22;17.20;99.90
6865;DHT22;3471;49.678;8.388;2023-04-29T11:50:57;17.30;99.90
6865;DHT22;3471;49.678;8.388;2023-04-29T11:53:24;17.40;99.90
6865;DHT22;3471;49.678;8.388;2023-04-29T11:55:54;17.40;99.90
6865;DHT22;3471;49.678;8.388;2023-04-29T11:58:21;17.50;99.90
6865;DHT22;3471;49.678;8.388;2023-04-29T12:00:47;17.50;99.90
6865;DHT22;3471;49.678;8.388;2023-04-29T12:03:14;17.60;99.90
6865;DHT22;3471;49.678;8.388;2023-04-29T12:05:56;17.60;99.90
6865;DHT22;3471;49.678;8.388;2023-04-29T12:08:23;17.70;99.90
6865;DHT22;3471;49.678;8.388;2023-04-29T12:10:49;17.80;99.90
6865;DHT22;3471;49.678;8.388;2023-04-29T12:13:17;17.80;99.90
6865;DHT22;3471;49.678;8.388;2023-04-29T12:15:47;17.80;99.90
6865;DHT22;3471;49.678;8.388;2023-04-29T12:18:13;17.80;99.90
6865;DHT22;3471;49.678;8.388;2023-04-29T12:20:39;17.90;99.90
6865;DHT22;3471;49.678;8.388;2023-04-29T12:23:12;17.90;99.90
6865;DHT22;3471;49.678;8.388;2023-04-29T12:25:38;17.90;99.90
6865;DHT22;3471;49.678;8.388;2023-04-29T12:28:10;17.90;99.90
6865;DHT22;3471;49.678;8.388;2023-04-29T12:30:36;18.00;99.90
6865;DHT22;3471;49.678;8.388;2023-04-29T12:33:02;18.20;99.90
6865;DHT22;3471;49.678;8.388;2023-04-29T12:35:27;18.40;99.90
6865;DHT22;3471;49.678;8.388;2023-04-29T12:37:53;18.50;99.90
6865;DHT22;3471;49.678;8.388;2023-04-29T12:40:19;18.60;99.90
6865;DHT22;3471;49.678;8.388;2023-04-29T12:42:45;18.70;99.90
6865;DHT22;3471;49.678;8.388;2023-04-29T12:45:30;18.70;99.90
6865;DHT22;3471;49.678;8.388;2023-04-29T12:47:57;18.70;99.90
6865;DHT22;3471;49.678;8.388;2023-04-29T12:50:33;18.80;99.90
6865;DHT22;3471;49.678;8.388;2023-04-29T12:53:00;18.90;99.90
6865;DHT22;3471;49.678;8.388;2023-04-29T12:55:25;18.90;99.90
6865;DHT22;3471;49.678;8.388;2023-04-29T12:57:51;18.90;99.90
6865;DHT22;3471;49.678;8.388;2023-04-29T13:00:17;19.00;99.90
6865;DHT22;3471;49.678;8.388;2023-04-29T13:02:45;19.00;99.90
6865;DHT22;3471;49.678;8.388;2023-04-29T13:05:11;19.00;99.90
6865;DHT22;3471;49.678;8.388;2023-04-29T13:07:37;19.00;99.90
6865;DHT22;3471;49.678;8.388;2023-04-29T13:10:04;19.00;99.90
6865;DHT22;3471;49.678;8.388;2023-04-29T13:12:31;19.10;99.90
6865;DHT22;3471;49.678;8.388;2023-04-29T13:14:56;19.10;99.90
6865;DHT22;3471;49.678;8.388;2023-04-29T13:17:22;19.10;99.90
6865;DHT22;3471;49.678;8.388;2023-04-29T13:19:48;19.10;99.90
6865;DHT22;3471;49.678;8.388;2023-04-29T13:22:13;19.10;99.90
6865;DHT22;3471;49.678;8.388;2023-04-29T13:24:39;19.00;99.90
6865;DHT22;3471;49.678;8.388;2023-04-29T13:27:04;19.20;99.90
6865;DHT22;3471;49.678;8.388;2023-04-29T13:29:30;19.40;99.90
6865;DHT22;3471;49.678;8.388;2023-04-29T13:31:56;19.80;99.90
6865;DHT22;3471;49.678;8.388;2023-04-29T13:34:21;20.20;99.90
6865;DHT22;3471;49.678;8.388;2023-04-29T13:36:47;20.90;99.90
6865;DHT22;3471;49.678;8.388;2023-04-29T13:39:12;21.50;99.90
6865;DHT22;3471;49.678;8.388;2023-04-29T13:41:38;22.00;99.90
6865;DHT22;3471;49.678;8.388;2023-04-29T13:44:04;22.60;99.90
6865;DHT22;3471;49.678;8.388;2023-04-29T13:46:29;23.20;99.90
6865;DHT22;3471;49.678;8.388;2023-04-29T13:48:57;23.80;99.90
6865;DHT22;3471;49.678;8.388;2023-04-29T13:51:22;24.50;99.90
6865;DHT22;3471;49.678;8.388;2023-04-29T13:53:48;25.20;99.90
6865;DHT22;3471;49.678;8.388;2023-04-29T13:56:14;25.50;99.90
6865;DHT22;3471;49.678;8.388;2023-04-29T13:58:40;25.50;99.90
6865;DHT22;3471;49.678;8.388;2023-04-29T14:01:06;25.20;99.90
6865;DHT22;3471;49.678;8.388;2023-04-29T14:03:32;24.60;99.90
6865;DHT22;3471;49.678;8.388;2023-04-29T14:05:57;24.00;99.90
6865;DHT22;3471;49.678;8.388;2023-04-29T14:08:23;23.40;99.90
6865;DHT22;3471;49.678;8.388;2023-04-29T14:10:48;22.70;99.90
6865;DHT22;3471;49.678;8.388;2023-04-29T14:13:14;22.20;99.90
6865;DHT22;3471;49.678;8.388;2023-04-29T14:15:40;21.60;99.90
6865;DHT22;3471;49.678;8.388;2023-04-29T14:18:05;21.00;99.90
6865;DHT22;3471;49.678;8.388;2023-04-29T14:20:33;20.60;99.90
6865;DHT22;3471;49.678;8.388;2023-04-29T14:22:59;20.20;99.90
6865;DHT22;3471;49.678;8.388;2023-04-29T14:25:25;19.90;99.90
6865;DHT22;3471;49.678;8.388;2023-04-29T14:27:50;19.60;99.90
6865;DHT22;3471;49.678;8.388;2023-04-29T14:30:16;19.30;99.90
6865;DHT22;3471;49.678;8.388;2023-04-29T14:32:41;19.10;99.90
6865;DHT22;3471;49.678;8.388;2023-04-29T14:35:08;18.90;99.90
6865;DHT22;3471;49.678;8.388;2023-04-29T14:37:33;18.60;99.90
6865;DHT22;3471;49.678;8.388;2023-04-29T14:39:59;18.40;99.90
6865;DHT22;3471;49.678;8.388;2023-04-29T14:42:25;18.30;99.90
6865;DHT22;3471;49.678;8.388;2023-04-29T14:44:50;18.20;99.90
6865;DHT22;3471;49.678;8.388;2023-04-29T14:47:18;18.00;99.90
6865;DHT22;3471;49.678;8.388;2023-04-29T14:49:44;17.90;99.90
6865;DHT22;3471;49.678;8.388;2023-04-29T14:52:09;17.90;99.90
6865;DHT22;3471;49.678;8.388;2023-04-29T14:54:35;17.80;99.90
6865;DHT22;3471;49.678;8.388;2023-04-29T14:57:00;17.90;99.90
6865;DHT22;3471;49.678;8.388;2023-04-29T14:59:26;17.90;99.90
6865;DHT22;3471;49.678;8.388;2023-04-29T15:01:56;18.00;99.90
6865;DHT22;3471;49.678;8.388;2023-04-29T15:04:22;18.10;99.90
6865;DHT22;3471;49.678;8.388;2023-04-29T15:06:48;18.30;99.90
6865;DHT22;3471;49.678;8.388;2023-04-29T15:09:14;18.50;99.90
6865;DHT22;3471;49.678;8.388;2023-04-29T15:11:40;18.60;99.90
6865;DHT22;3471;49.678;8.388;2023-04-29T15:14:06;18.70;99.90
6865;DHT22;3471;49.678;8.388;2023-04-29T15:16:32;19.00;99.90
6865;DHT22;3471;49.678;8.388;2023-04-29T15:18:58;19.10;99.90
6865;DHT22;3471;49.678;8.388;2023-04-29T15:21:24;19.20;99.90
6865;DHT22;3471;49.678;8.388;2023-04-29T15:23:49;19.30;99.90
6865;DHT22;3471;49.678;8.388;2023-04-29T15:26:15;19.30;99.90
6865;DHT22;3471;49.678;8.388;2023-04-29T15:28:40;19.40;99.90
6865;DHT22;3471;49.678;8.388;2023-04-29T15:31:07;19.40;99.90
6865;DHT22;3471;49.678;8.388;2023-04-29T15:33:33;19.30;99.90
6865;DHT22;3471;49.678;8.388;2023-04-29T15:36:00;19.20;99.90
6865;DHT22;3471;49.678;8.388;2023-04-29T15:38:25;19.00;99.90
6865;DHT22;3471;49.678;8.388;2023-04-29T15:40:51;18.90;99.90
6865;DHT22;3471;49.678;8.388;2023-04-29T15:43:21;18.70;99.90
6865;DHT22;3471;49.678;8.388;2023-04-29T15:45:46;18.60;99.90
6865;DHT22;3471;49.678;8.388;2023-04-29T15:48:12;18.60;99.90
6865;DHT22;3471;49.678;8.388;2023-04-29T15:50:37;18.50;99.90
6865;DHT22;3471;49.678;8.388;2023-04-29T15:53:03;18.40;99.90
6865;DHT22;3471;49.678;8.388;2023-04-29T15:55:28;18.30;99.90
6865;DHT22;3471;49.678;8.388;2023-04-29T15:57:54;18.30;99.90
6865;DHT22;3471;49.678;8.388;2023-04-29T16:00:20;18.20;99.90
6865;DHT22;3471;49.678;8.388;2023-04-29T16:02:45;18.10;99.90
6865;DHT22;3471;49.678;8.388;2023-04-29T16:05:11;18.00;99.90
6865;DHT22;3471;49.678;8.388;2023-04-29T16:07:36;17.90;99.90
6865;DHT22;3471;49.678;8.388;2023-04-29T16:10:02;17.80;99.90
6865;DHT22;3471;49.678;8.388;2023-04-29T16:12:28;17.60;99.90
6865;DHT22;3471;49.678;8.388;2023-04-29T16:14:53;17.50;99.90
6865;DHT22;3471;49.678;8.388;2023-04-29T16:17:19;17.50;99.90
6865;DHT22;3471;49.678;8.388;2023-04-29T16:19:44;17.30;99.90
6865;DHT22;3471;49.678;8.388;2023-04-29T16:22:10;17.30;99.90
6865;DHT22;3471;49.678;8.388;2023-04-29T16:24:36;17.30;99.90